sensor_id;sensor_type;location;lat;lon;timestamp;temperature;humidity
48589;DHT22;34369;51.174;6.738;2022-12-07T00:00:08;5.10;91.50
48589;DHT22;34369;51.174;6.738;2022-12-07T00:02:42;5.10;91.50
48589;DHT22;34369;51.174;6.738;2022-12-07T00:07:49;5.00;91.40
48589;DHT22;34369;51.174;6.738;2022-12-07T00:18:00;5.00;91.40
48589;DHT22;34369;51.174;6.738;2022-12-07T00:25:40;4.90;91.50
48589;DHT22;34369;51.174;6.738;2022-12-07T00:35:55;4.90;91.60
48589;DHT22;34369;51.174;6.738;2022-12-07T00:38:31;5.00;91.90
48589;DHT22;34369;51.174;6.738;2022-12-07T00:41:06;5.20;91.90
48589;DHT22;34369;51.174;6.738;2022-12-07T00:43:46;5.00;91.90
48589;DHT22;34369;51.174;6.738;2022-12-07T00:46:19;5.10;91.90
48589;DHT22;34369;51.174;6.738;2022-12-07T00:48:53;5.00;91.90
48589;DHT22;34369;51.174;6.738;2022-12-07T00:51:30;5.00;91.90
48589;DHT22;34369;51.174;6.738;2022-12-07T00:54:04;4.90;91.90
48589;DHT22;34369;51.174;6.738;2022-12-07T00:56:37;5.00;92.10
48589;DHT22;34369;51.174;6.738;2022-12-07T00:59:11;5.00;91.80
48589;DHT22;34369;51.174;6.738;2022-12-07T01:01:45;5.10;91.90
48589;DHT22;34369;51.174;6.738;2022-12-07T01:04:18;5.00;91.90
48589;DHT22;34369;51.174;6.738;2022-12-07T01:06:55;5.00;91.90
48589;DHT22;34369;51.174;6.738;2022-12-07T01:09:27;5.00;92.00
48589;DHT22;34369;51.174;6.738;2022-12-07T01:11:59;5.00;92.00
48589;DHT22;34369;51.174;6.738;2022-12-07T01:14:35;5.00;92.00
48589;DHT22;34369;51.174;6.738;2022-12-07T01:17:08;5.00;92.10
48589;DHT22;34369;51.174;6.738;2022-12-07T01:19:41;5.00;92.00
48589;DHT22;34369;51.174;6.738;2022-12-07T01:22:15;4.90;91.90
48589;DHT22;34369;51.174;6.738;2022-12-07T01:24:48;5.00;92.10
48589;DHT22;34369;51.174;6.738;2022-12-07T01:27:22;5.00;92.10
48589;DHT22;34369;51.174;6.738;2022-12-07T01:29:55;5.00;92.10
48589;DHT22;34369;51.174;6.738;2022-12-07T01:32:29;5.00;92.10
48589;DHT22;34369;51.174;6.738;2022-12-07T01:35:03;5.00;92.10
48589;DHT22;34369;51.174;6.738;2022-12-07T01:37:38;5.00;92.10
48589;DHT22;34369;51.174;6.738;2022-12-07T01:40:11;5.00;91.90
48589;DHT22;34369;51.174;6.738;2022-12-07T01:42:44;5.00;92.10
48589;DHT22;34369;51.174;6.738;2022-12-07T01:45:38;5.00;92.10
48589;DHT22;34369;51.174;6.738;2022-12-07T01:48:15;5.10;92.10
48589;DHT22;34369;51.174;6.738;2022-12-07T01:50:49;5.00;92.00
48589;DHT22;34369;51.174;6.738;2022-12-07T01:53:29;4.90;92.10
48589;DHT22;34369;51.174;6.738;2022-12-07T01:56:02;4.90;91.90
48589;DHT22;34369;51.174;6.738;2022-12-07T01:58:35;5.00;92.00
48589;DHT22;34369;51.174;6.738;2022-12-07T02:01:08;4.90;92.00
48589;DHT22;34369;51.174;6.738;2022-12-07T02:03:43;5.00;92.00
48589;DHT22;34369;51.174;6.738;2022-12-07T02:06:23;4.90;92.10
48589;DHT22;34369;51.174;6.738;2022-12-07T02:08:58;5.00;92.10
48589;DHT22;34369;51.174;6.738;2022-12-07T02:16:45;4.90;92.00
48589;DHT22;34369;51.174;6.738;2022-12-07T02:23:12;4.90;91.90
48589;DHT22;34369;51.174;6.738;2022-12-07T02:26:34;4.90;91.90
48589;DHT22;34369;51.174;6.738;2022-12-07T02:29:33;4.90;91.80
48589;DHT22;34369;51.174;6.738;2022-12-07T02:32:12;4.90;91.80
48589;DHT22;34369;51.174;6.738;2022-12-07T02:34:54;4.90;92.00
48589;DHT22;34369;51.174;6.738;2022-12-07T02:37:35;4.90;91.90
48589;DHT22;34369;51.174;6.738;2022-12-07T02:40:14;4.80;92.10
48589;DHT22;34369;51.174;6.738;2022-12-07T02:42:52;4.90;91.90
48589;DHT22;34369;51.174;6.738;2022-12-07T02:45:29;5.00;92.10
48589;DHT22;34369;51.174;6.738;2022-12-07T02:48:04;4.90;92.00
48589;DHT22;34369;51.174;6.738;2022-12-07T02:53:29;4.80;91.90
48589;DHT22;34369;51.174;6.738;2022-12-07T02:56:09;4.80;92.10
48589;DHT22;34369;51.174;6.738;2022-12-07T02:58:52;4.90;92.00
48589;DHT22;34369;51.174;6.738;2022-12-07T03:01:39;4.90;92.00
48589;DHT22;34369;51.174;6.738;2022-12-07T03:04:24;4.90;92.00
48589;DHT22;34369;51.174;6.738;2022-12-07T03:07:08;8.10;92.80
48589;DHT22;34369;51.174;6.738;2022-12-07T03:09:56;4.90;92.00
48589;DHT22;34369;51.174;6.738;2022-12-07T03:12:40;1.80;91.30
48589;DHT22;34369;51.174;6.738;2022-12-07T03:15:20;5.00;92.00
48589;DHT22;34369;51.174;6.738;2022-12-07T03:17:59;4.80;91.90
48589;DHT22;34369;51.174;6.738;2022-12-07T03:20:33;4.80;92.50
48589;DHT22;34369;51.174;6.738;2022-12-07T03:23:08;5.00;91.90
48589;DHT22;34369;51.174;6.738;2022-12-07T03:25:45;4.90;92.00
48589;DHT22;34369;51.174;6.738;2022-12-07T03:28:24;4.80;91.90
48589;DHT22;34369;51.174;6.738;2022-12-07T03:31:02;5.50;92.10
48589;DHT22;34369;51.174;6.738;2022-12-07T03:33:42;4.90;91.80
48589;DHT22;34369;51.174;6.738;2022-12-07T03:36:22;4.90;92.00
48589;DHT22;34369;51.174;6.738;2022-12-07T03:39:02;4.90;92.00
48589;DHT22;34369;51.174;6.738;2022-12-07T03:41:37;4.80;91.70
48589;DHT22;34369;51.174;6.738;2022-12-07T03:46:45;4.80;91.70
48589;DHT22;34369;51.174;6.738;2022-12-07T03:49:27;4.80;91.70
48589;DHT22;34369;51.174;6.738;2022-12-07T03:52:10;4.80;91.70
48589;DHT22;34369;51.174;6.738;2022-12-07T03:54:48;4.80;91.70
48589;DHT22;34369;51.174;6.738;2022-12-07T03:57:24;4.90;91.70
48589;DHT22;34369;51.174;6.738;2022-12-07T04:02:32;4.80;91.80
48589;DHT22;34369;51.174;6.738;2022-12-07T04:05:07;4.80;91.80
48589;DHT22;34369;51.174;6.738;2022-12-07T04:07:40;4.60;91.60
48589;DHT22;34369;51.174;6.738;2022-12-07T04:20:26;4.60;91.60
48589;DHT22;34369;51.174;6.738;2022-12-07T04:35:43;4.40;91.80
48589;DHT22;34369;51.174;6.738;2022-12-07T04:38:16;5.20;92.00
48589;DHT22;34369;51.174;6.738;2022-12-07T04:51:01;4.40;91.80
48589;DHT22;34369;51.174;6.738;2022-12-07T04:56:06;4.50;91.90
48589;DHT22;34369;51.174;6.738;2022-12-07T05:06:19;4.50;92.00
48589;DHT22;34369;51.174;6.738;2022-12-07T05:14:12;4.50;91.80
48589;DHT22;34369;51.174;6.738;2022-12-07T05:16:47;4.50;91.80
48589;DHT22;34369;51.174;6.738;2022-12-07T05:21:55;4.40;91.80
48589;DHT22;34369;51.174;6.738;2022-12-07T05:32:05;4.50;91.80
48589;DHT22;34369;51.174;6.738;2022-12-07T05:37:11;4.40;91.80
48589;DHT22;34369;51.174;6.738;2022-12-07T05:52:28;4.40;91.90
48589;DHT22;34369;51.174;6.738;2022-12-07T06:00:06;4.40;91.90
48589;DHT22;34369;51.174;6.738;2022-12-07T06:02:38;4.40;92.00
48589;DHT22;34369;51.174;6.738;2022-12-07T06:05:10;4.40;92.00
48589;DHT22;34369;51.174;6.738;2022-12-07T06:07:43;4.30;91.90
48589;DHT22;34369;51.174;6.738;2022-12-07T06:10:16;4.30;91.90
48589;DHT22;34369;51.174;6.738;2022-12-07T06:12:48;4.40;91.90
48589;DHT22;34369;51.174;6.738;2022-12-07T06:15:20;4.40;92.00
48589;DHT22;34369;51.174;6.738;2022-12-07T06:17:53;4.40;92.00
48589;DHT22;34369;51.174;6.738;2022-12-07T06:20:26;4.50;92.00
48589;DHT22;34369;51.174;6.738;2022-12-07T06:23:03;4.40;91.90
48589;DHT22;34369;51.174;6.738;2022-12-07T06:28:13;4.40;91.90
48589;DHT22;34369;51.174;6.738;2022-12-07T06:30:46;4.40;91.90
48589;DHT22;34369;51.174;6.738;2022-12-07T06:33:20;4.40;91.90
48589;DHT22;34369;51.174;6.738;2022-12-07T06:48:43;4.50;91.90
48589;DHT22;34369;51.174;6.738;2022-12-07T06:53:50;4.50;91.90
48589;DHT22;34369;51.174;6.738;2022-12-07T06:56:23;4.60;91.90
48589;DHT22;34369;51.174;6.738;2022-12-07T07:01:32;4.50;91.90
48589;DHT22;34369;51.174;6.738;2022-12-07T07:19:31;4.50;91.90
48589;DHT22;34369;51.174;6.738;2022-12-07T07:22:05;4.50;91.80
48589;DHT22;34369;51.174;6.738;2022-12-07T07:40:07;4.40;91.50
48589;DHT22;34369;51.174;6.738;2022-12-07T07:50:20;4.50;91.40
48589;DHT22;34369;51.174;6.738;2022-12-07T08:05:46;4.30;91.20
48589;DHT22;34369;51.174;6.738;2022-12-07T08:13:26;4.20;91.40
48589;DHT22;34369;51.174;6.738;2022-12-07T08:21:14;4.20;91.30
48589;DHT22;34369;51.174;6.738;2022-12-07T08:28:55;4.10;91.60
48589;DHT22;34369;51.174;6.738;2022-12-07T08:31:28;4.10;91.70
48589;DHT22;34369;51.174;6.738;2022-12-07T08:39:11;4.30;91.90
48589;DHT22;34369;51.174;6.738;2022-12-07T08:46:55;4.20;91.90
48589;DHT22;34369;51.174;6.738;2022-12-07T08:49:32;4.30;92.00
48589;DHT22;34369;51.174;6.738;2022-12-07T08:54:41;4.40;92.10
48589;DHT22;34369;51.174;6.738;2022-12-07T08:57:16;4.40;92.10
48589;DHT22;34369;51.174;6.738;2022-12-07T08:59:50;4.40;92.10
48589;DHT22;34369;51.174;6.738;2022-12-07T09:27:58;4.90;92.10
48589;DHT22;34369;51.174;6.738;2022-12-07T09:38:10;5.00;91.80
48589;DHT22;34369;51.174;6.738;2022-12-07T09:40:47;5.10;91.80
48589;DHT22;34369;51.174;6.738;2022-12-07T09:43:30;5.10;91.80
48589;DHT22;34369;51.174;6.738;2022-12-07T09:48:38;5.20;91.40
48589;DHT22;34369;51.174;6.738;2022-12-07T09:51:15;5.20;91.30
48589;DHT22;34369;51.174;6.738;2022-12-07T09:56:22;5.30;91.30
48589;DHT22;34369;51.174;6.738;2022-12-07T09:58:59;5.30;91.30
48589;DHT22;34369;51.174;6.738;2022-12-07T10:01:33;5.40;91.30
48589;DHT22;34369;51.174;6.738;2022-12-07T10:04:12;5.40;91.30
48589;DHT22;34369;51.174;6.738;2022-12-07T10:09:22;5.50;91.50
48589;DHT22;34369;51.174;6.738;2022-12-07T10:12:00;5.60;91.40
48589;DHT22;34369;51.174;6.738;2022-12-07T10:14:37;5.60;91.30
48589;DHT22;34369;51.174;6.738;2022-12-07T10:17:35;5.60;91.40
48589;DHT22;34369;51.174;6.738;2022-12-07T10:20:20;5.70;91.20
48589;DHT22;34369;51.174;6.738;2022-12-07T10:23:00;5.70;91.20
48589;DHT22;34369;51.174;6.738;2022-12-07T10:25:36;5.80;91.20
48589;DHT22;34369;51.174;6.738;2022-12-07T10:28:13;5.90;91.10
48589;DHT22;34369;51.174;6.738;2022-12-07T10:30:57;5.80;91.00
48589;DHT22;34369;51.174;6.738;2022-12-07T10:33:36;5.90;90.90
48589;DHT22;34369;51.174;6.738;2022-12-07T10:36:19;5.90;90.80
48589;DHT22;34369;51.174;6.738;2022-12-07T10:39:00;5.90;90.70
48589;DHT22;34369;51.174;6.738;2022-12-07T10:41:35;6.00;90.70
48589;DHT22;34369;51.174;6.738;2022-12-07T10:44:24;6.00;90.50
48589;DHT22;34369;51.174;6.738;2022-12-07T10:47:11;5.90;90.40
48589;DHT22;34369;51.174;6.738;2022-12-07T10:50:25;6.10;90.30
48589;DHT22;34369;51.174;6.738;2022-12-07T10:53:19;6.00;90.10
48589;DHT22;34369;51.174;6.738;2022-12-07T10:59:53;6.10;90.20
48589;DHT22;34369;51.174;6.738;2022-12-07T11:02:58;6.10;90.10
48589;DHT22;34369;51.174;6.738;2022-12-07T11:05:53;6.00;89.80
48589;DHT22;34369;51.174;6.738;2022-12-07T11:08:44;5.90;89.70
48589;DHT22;34369;51.174;6.738;2022-12-07T11:11:30;6.10;89.90
48589;DHT22;34369;51.174;6.738;2022-12-07T11:14:17;6.20;90.30
48589;DHT22;34369;51.174;6.738;2022-12-07T11:16:57;6.30;90.40
48589;DHT22;34369;51.174;6.738;2022-12-07T11:20:02;6.50;90.60
48589;DHT22;34369;51.174;6.738;2022-12-07T11:22:51;6.60;90.10
48589;DHT22;34369;51.174;6.738;2022-12-07T11:25:32;6.80;88.50
48589;DHT22;34369;51.174;6.738;2022-12-07T11:28:20;6.80;88.40
48589;DHT22;34369;51.174;6.738;2022-12-07T11:31:06;6.90;87.90
48589;DHT22;34369;51.174;6.738;2022-12-07T11:33:47;7.00;87.80
48589;DHT22;34369;51.174;6.738;2022-12-07T11:36:33;6.90;86.70
48589;DHT22;34369;51.174;6.738;2022-12-07T11:39:19;7.00;86.70
48589;DHT22;34369;51.174;6.738;2022-12-07T11:42:01;7.00;86.40
48589;DHT22;34369;51.174;6.738;2022-12-07T11:44:40;6.90;86.10
48589;DHT22;34369;51.174;6.738;2022-12-07T11:47:27;7.00;86.00
48589;DHT22;34369;51.174;6.738;2022-12-07T11:50:18;6.90;86.00
48589;DHT22;34369;51.174;6.738;2022-12-07T11:53:02;6.90;86.10
48589;DHT22;34369;51.174;6.738;2022-12-07T11:55:43;6.90;86.40
48589;DHT22;34369;51.174;6.738;2022-12-07T11:58:44;6.90;86.70
48589;DHT22;34369;51.174;6.738;2022-12-07T12:01:33;7.00;86.70
48589;DHT22;34369;51.174;6.738;2022-12-07T12:04:32;7.10;86.70
48589;DHT22;34369;51.174;6.738;2022-12-07T12:07:12;7.10;86.80
48589;DHT22;34369;51.174;6.738;2022-12-07T12:09:52;7.00;86.20
48589;DHT22;34369;51.174;6.738;2022-12-07T12:12:42;7.00;86.10
48589;DHT22;34369;51.174;6.738;2022-12-07T12:15:36;7.00;86.00
48589;DHT22;34369;51.174;6.738;2022-12-07T12:18:32;7.10;85.90
48589;DHT22;34369;51.174;6.738;2022-12-07T12:21:15;7.10;85.80
48589;DHT22;34369;51.174;6.738;2022-12-07T12:23:58;7.10;85.80
48589;DHT22;34369;51.174;6.738;2022-12-07T12:26:36;7.10;85.70
48589;DHT22;34369;51.174;6.738;2022-12-07T12:29:21;7.20;85.40
48589;DHT22;34369;51.174;6.738;2022-12-07T12:32:10;7.30;85.60
48589;DHT22;34369;51.174;6.738;2022-12-07T12:35:03;7.20;85.20
48589;DHT22;34369;51.174;6.738;2022-12-07T12:37:54;7.20;85.40
48589;DHT22;34369;51.174;6.738;2022-12-07T12:40:44;7.30;85.70
48589;DHT22;34369;51.174;6.738;2022-12-07T12:46:38;7.40;86.10
48589;DHT22;34369;51.174;6.738;2022-12-07T12:49:43;7.30;84.90
48589;DHT22;34369;51.174;6.738;2022-12-07T12:52:51;7.50;84.90
48589;DHT22;34369;51.174;6.738;2022-12-07T12:55:59;7.50;84.20
48589;DHT22;34369;51.174;6.738;2022-12-07T12:58:44;7.70;82.90
48589;DHT22;34369;51.174;6.738;2022-12-07T13:01:46;7.60;82.00
48589;DHT22;34369;51.174;6.738;2022-12-07T13:07:48;7.50;82.20
48589;DHT22;34369;51.174;6.738;2022-12-07T13:10:41;7.50;82.00
48589;DHT22;34369;51.174;6.738;2022-12-07T13:13:35;7.40;81.20
48589;DHT22;34369;51.174;6.738;2022-12-07T13:16:41;7.50;81.50
48589;DHT22;34369;51.174;6.738;2022-12-07T13:22:54;7.30;81.80
48589;DHT22;34369;51.174;6.738;2022-12-07T13:25:38;7.10;81.90
48589;DHT22;34369;51.174;6.738;2022-12-07T13:28:17;7.20;82.00
48589;DHT22;34369;51.174;6.738;2022-12-07T13:31:04;7.10;82.30
48589;DHT22;34369;51.174;6.738;2022-12-07T13:33:44;7.10;82.40
48589;DHT22;34369;51.174;6.738;2022-12-07T13:36:26;7.00;82.40
48589;DHT22;34369;51.174;6.738;2022-12-07T13:39:18;7.10;82.40
48589;DHT22;34369;51.174;6.738;2022-12-07T13:41:54;7.00;82.20
48589;DHT22;34369;51.174;6.738;2022-12-07T13:44:28;7.00;82.40
48589;DHT22;34369;51.174;6.738;2022-12-07T13:47:12;7.00;82.30
48589;DHT22;34369;51.174;6.738;2022-12-07T13:49:48;6.90;82.10
48589;DHT22;34369;51.174;6.738;2022-12-07T13:52:25;6.90;82.10
48589;DHT22;34369;51.174;6.738;2022-12-07T13:55:01;6.90;82.00
48589;DHT22;34369;51.174;6.738;2022-12-07T13:57:48;6.80;82.10
48589;DHT22;34369;51.174;6.738;2022-12-07T14:00:23;6.80;82.00
48589;DHT22;34369;51.174;6.738;2022-12-07T14:02:59;6.70;82.00
48589;DHT22;34369;51.174;6.738;2022-12-07T14:05:34;8.00;82.70
48589;DHT22;34369;51.174;6.738;2022-12-07T14:08:22;6.70;82.40
48589;DHT22;34369;51.174;6.738;2022-12-07T14:10:56;6.70;82.50
48589;DHT22;34369;51.174;6.738;2022-12-07T14:13:32;6.70;82.70
48589;DHT22;34369;51.174;6.738;2022-12-07T14:16:23;6.70;82.80
48589;DHT22;34369;51.174;6.738;2022-12-07T14:19:00;6.70;83.00
48589;DHT22;34369;51.174;6.738;2022-12-07T14:21:34;9.50;84.50
48589;DHT22;34369;51.174;6.738;2022-12-07T14:24:16;6.70;83.10
48589;DHT22;34369;51.174;6.738;2022-12-07T14:26:50;6.90;83.40
48589;DHT22;34369;51.174;6.738;2022-12-07T14:29:38;6.70;83.20
48589;DHT22;34369;51.174;6.738;2022-12-07T14:32:22;6.70;83.20
48589;DHT22;34369;51.174;6.738;2022-12-07T14:35:08;6.70;82.80
48589;DHT22;34369;51.174;6.738;2022-12-07T14:37:45;6.60;82.60
48589;DHT22;34369;51.174;6.738;2022-12-07T14:40:21;6.60;82.80
48589;DHT22;34369;51.174;6.738;2022-12-07T14:42:58;6.60;82.70
48589;DHT22;34369;51.174;6.738;2022-12-07T14:45:33;6.60;82.70
48589;DHT22;34369;51.174;6.738;2022-12-07T14:48:07;6.50;82.60
48589;DHT22;34369;51.174;6.738;2022-12-07T14:50:49;6.40;82.60
48589;DHT22;34369;51.174;6.738;2022-12-07T14:53:27;6.40;82.50
48589;DHT22;34369;51.174;6.738;2022-12-07T14:56:04;6.30;82.20
48589;DHT22;34369;51.174;6.738;2022-12-07T14:58:37;6.30;82.40
48589;DHT22;34369;51.174;6.738;2022-12-07T15:01:10;6.30;82.60
48589;DHT22;34369;51.174;6.738;2022-12-07T15:09:15;6.00;82.80
48589;DHT22;34369;51.174;6.738;2022-12-07T15:11:50;6.00;82.90
48589;DHT22;34369;51.174;6.738;2022-12-07T15:27:09;5.80;84.30
48589;DHT22;34369;51.174;6.738;2022-12-07T15:39:53;5.60;84.60
48589;DHT22;34369;51.174;6.738;2022-12-07T15:42:27;5.50;84.40
48589;DHT22;34369;51.174;6.738;2022-12-07T15:45:00;5.40;84.70
48589;DHT22;34369;51.174;6.738;2022-12-07T15:47:37;5.50;84.90
48589;DHT22;34369;51.174;6.738;2022-12-07T15:50:13;5.40;84.90
48589;DHT22;34369;51.174;6.738;2022-12-07T15:52:47;5.40;85.20
48589;DHT22;34369;51.174;6.738;2022-12-07T15:55:19;5.30;85.50
48589;DHT22;34369;51.174;6.738;2022-12-07T15:57:57;5.20;85.40
48589;DHT22;34369;51.174;6.738;2022-12-07T16:00:30;5.10;85.40
48589;DHT22;34369;51.174;6.738;2022-12-07T16:03:02;5.10;85.70
48589;DHT22;34369;51.174;6.738;2022-12-07T16:05:34;5.10;85.80
48589;DHT22;34369;51.174;6.738;2022-12-07T16:08:07;5.10;85.80
48589;DHT22;34369;51.174;6.738;2022-12-07T16:10:39;5.20;86.00
48589;DHT22;34369;51.174;6.738;2022-12-07T16:13:15;5.00;86.00
48589;DHT22;34369;51.174;6.738;2022-12-07T16:15:49;5.10;86.30
48589;DHT22;34369;51.174;6.738;2022-12-07T16:18:22;5.00;86.40
48589;DHT22;34369;51.174;6.738;2022-12-07T16:20:55;5.00;86.50
48589;DHT22;34369;51.174;6.738;2022-12-07T16:23:27;5.00;86.80
48589;DHT22;34369;51.174;6.738;2022-12-07T16:26:07;5.00;86.90
48589;DHT22;34369;51.174;6.738;2022-12-07T16:28:42;5.10;86.90
48589;DHT22;34369;51.174;6.738;2022-12-07T16:31:17;5.00;87.20
48589;DHT22;34369;51.174;6.738;2022-12-07T16:33:53;5.00;87.30
48589;DHT22;34369;51.174;6.738;2022-12-07T16:36:26;5.10;87.40
48589;DHT22;34369;51.174;6.738;2022-12-07T16:38:59;5.00;87.50
48589;DHT22;34369;51.174;6.738;2022-12-07T16:41:32;5.10;87.80
48589;DHT22;34369;51.174;6.738;2022-12-07T16:44:09;5.00;87.60
48589;DHT22;34369;51.174;6.738;2022-12-07T16:51:49;5.10;88.10
48589;DHT22;34369;51.174;6.738;2022-12-07T16:59:28;5.00;88.30
48589;DHT22;34369;51.174;6.738;2022-12-07T17:02:00;5.10;88.70
48589;DHT22;34369;51.174;6.738;2022-12-07T17:04:33;5.10;88.70
48589;DHT22;34369;51.174;6.738;2022-12-07T17:07:10;5.00;89.00
48589;DHT22;34369;51.174;6.738;2022-12-07T17:09:43;5.10;88.70
48589;DHT22;34369;51.174;6.738;2022-12-07T17:14:50;5.00;88.70
48589;DHT22;34369;51.174;6.738;2022-12-07T17:17:40;5.10;89.20
48589;DHT22;34369;51.174;6.738;2022-12-07T17:20:13;5.10;89.00
48589;DHT22;34369;51.174;6.738;2022-12-07T17:22:47;5.10;89.30
48589;DHT22;34369;51.174;6.738;2022-12-07T17:25:20;5.10;89.40
48589;DHT22;34369;51.174;6.738;2022-12-07T17:27:52;5.10;89.30
48589;DHT22;34369;51.174;6.738;2022-12-07T17:30:26;5.10;89.50
48589;DHT22;34369;51.174;6.738;2022-12-07T17:32:58;5.10;89.50
48589;DHT22;34369;51.174;6.738;2022-12-07T17:35:31;5.20;89.50
48589;DHT22;34369;51.174;6.738;2022-12-07T17:38:04;5.20;89.80
48589;DHT22;34369;51.174;6.738;2022-12-07T17:40:41;5.10;89.90
48589;DHT22;34369;51.174;6.738;2022-12-07T17:43:14;5.10;90.00
48589;DHT22;34369;51.174;6.738;2022-12-07T17:45:48;5.10;90.00
48589;DHT22;34369;51.174;6.738;2022-12-07T17:48:21;5.10;90.10
48589;DHT22;34369;51.174;6.738;2022-12-07T17:50:59;5.10;90.00
48589;DHT22;34369;51.174;6.738;2022-12-07T17:53:55;5.20;90.10
48589;DHT22;34369;51.174;6.738;2022-12-07T17:56:30;5.20;90.10
48589;DHT22;34369;51.174;6.738;2022-12-07T17:59:02;5.10;90.20
48589;DHT22;34369;51.174;6.738;2022-12-07T18:01:37;5.20;90.10
48589;DHT22;34369;51.174;6.738;2022-12-07T18:04:11;5.20;90.20
48589;DHT22;34369;51.174;6.738;2022-12-07T18:06:44;5.20;90.20
48589;DHT22;34369;51.174;6.738;2022-12-07T18:09:16;5.30;90.40
48589;DHT22;34369;51.174;6.738;2022-12-07T18:17:01;5.20;90.50
48589;DHT22;34369;51.174;6.738;2022-12-07T18:22:10;5.20;90.30
48589;DHT22;34369;51.174;6.738;2022-12-07T18:27:14;5.20;90.50
48589;DHT22;34369;51.174;6.738;2022-12-07T18:29:47;5.20;90.30
48589;DHT22;34369;51.174;6.738;2022-12-07T18:32:20;5.10;90.30
48589;DHT22;34369;51.174;6.738;2022-12-07T18:34:52;5.10;90.40
48589;DHT22;34369;51.174;6.738;2022-12-07T18:37:24;5.10;90.40
48589;DHT22;34369;51.174;6.738;2022-12-07T18:39:57;5.10;90.60
48589;DHT22;34369;51.174;6.738;2022-12-07T18:42:30;5.10;90.50
48589;DHT22;34369;51.174;6.738;2022-12-07T18:45:03;5.10;90.70
48589;DHT22;34369;51.174;6.738;2022-12-07T18:47:37;5.00;90.50
48589;DHT22;34369;51.174;6.738;2022-12-07T18:50:10;5.00;90.60
48589;DHT22;34369;51.174;6.738;2022-12-07T18:52:42;5.00;90.70
48589;DHT22;34369;51.174;6.738;2022-12-07T18:55:14;5.00;90.60
48589;DHT22;34369;51.174;6.738;2022-12-07T18:57:46;5.00;90.60
48589;DHT22;34369;51.174;6.738;2022-12-07T19:00:19;5.00;90.60
48589;DHT22;34369;51.174;6.738;2022-12-07T19:02:54;5.00;90.60
48589;DHT22;34369;51.174;6.738;2022-12-07T19:05:26;4.90;90.60
48589;DHT22;34369;51.174;6.738;2022-12-07T19:08:00;4.90;90.80
48589;DHT22;34369;51.174;6.738;2022-12-07T19:10:32;4.80;90.60
48589;DHT22;34369;51.174;6.738;2022-12-07T19:13:05;5.00;90.80
48589;DHT22;34369;51.174;6.738;2022-12-07T19:15:39;4.90;90.60
48589;DHT22;34369;51.174;6.738;2022-12-07T19:18:12;4.80;90.80
48589;DHT22;34369;51.174;6.738;2022-12-07T19:20:48;4.80;90.70
48589;DHT22;34369;51.174;6.738;2022-12-07T19:23:20;4.80;90.90
48589;DHT22;34369;51.174;6.738;2022-12-07T19:25:54;4.70;90.90
48589;DHT22;34369;51.174;6.738;2022-12-07T19:28:27;4.70;90.80
48589;DHT22;34369;51.174;6.738;2022-12-07T19:31:04;4.70;90.80
48589;DHT22;34369;51.174;6.738;2022-12-07T19:33:38;4.70;90.70
48589;DHT22;34369;51.174;6.738;2022-12-07T19:36:10;4.60;90.80
48589;DHT22;34369;51.174;6.738;2022-12-07T19:38:42;4.70;90.80
48589;DHT22;34369;51.174;6.738;2022-12-07T19:41:14;4.70;90.90
48589;DHT22;34369;51.174;6.738;2022-12-07T19:44:02;4.60;90.80
48589;DHT22;34369;51.174;6.738;2022-12-07T19:46:37;4.60;90.80
48589;DHT22;34369;51.174;6.738;2022-12-07T19:49:11;4.50;91.00
48589;DHT22;34369;51.174;6.738;2022-12-07T19:51:46;4.60;90.90
48589;DHT22;34369;51.174;6.738;2022-12-07T19:54:21;4.50;90.90
48589;DHT22;34369;51.174;6.738;2022-12-07T19:56:55;4.50;90.90
48589;DHT22;34369;51.174;6.738;2022-12-07T19:59:28;4.50;91.00
48589;DHT22;34369;51.174;6.738;2022-12-07T20:04:35;4.40;91.00
48589;DHT22;34369;51.174;6.738;2022-12-07T20:07:07;4.30;91.00
48589;DHT22;34369;51.174;6.738;2022-12-07T20:09:39;4.50;91.10
48589;DHT22;34369;51.174;6.738;2022-12-07T20:12:11;4.30;91.20
48589;DHT22;34369;51.174;6.738;2022-12-07T20:15:02;4.40;91.40
48589;DHT22;34369;51.174;6.738;2022-12-07T20:17:37;4.40;91.30
48589;DHT22;34369;51.174;6.738;2022-12-07T20:20:11;4.30;91.20
48589;DHT22;34369;51.174;6.738;2022-12-07T20:22:43;4.30;91.30
48589;DHT22;34369;51.174;6.738;2022-12-07T20:25:15;4.30;91.30
48589;DHT22;34369;51.174;6.738;2022-12-07T20:27:49;4.30;91.40
48589;DHT22;34369;51.174;6.738;2022-12-07T20:32:54;4.30;91.50
48589;DHT22;34369;51.174;6.738;2022-12-07T20:35:28;4.30;91.40
48589;DHT22;34369;51.174;6.738;2022-12-07T20:38:00;4.20;91.60
48589;DHT22;34369;51.174;6.738;2022-12-07T20:40:33;4.40;91.50
48589;DHT22;34369;51.174;6.738;2022-12-07T20:43:07;4.30;91.60
48589;DHT22;34369;51.174;6.738;2022-12-07T20:45:43;4.30;91.50
48589;DHT22;34369;51.174;6.738;2022-12-07T20:50:49;4.30;91.60
48589;DHT22;34369;51.174;6.738;2022-12-07T20:55:54;8.40;92.70
48589;DHT22;34369;51.174;6.738;2022-12-07T20:58:26;4.30;91.50
48589;DHT22;34369;51.174;6.738;2022-12-07T21:00:59;4.20;91.70
48589;DHT22;34369;51.174;6.738;2022-12-07T21:03:31;4.20;91.50
48589;DHT22;34369;51.174;6.738;2022-12-07T21:06:05;4.20;91.50
48589;DHT22;34369;51.174;6.738;2022-12-07T21:08:38;4.20;91.50
48589;DHT22;34369;51.174;6.738;2022-12-07T21:13:43;4.20;91.40
48589;DHT22;34369;51.174;6.738;2022-12-07T21:16:17;4.20;91.50
48589;DHT22;34369;51.174;6.738;2022-12-07T21:21:24;4.20;91.60
48589;DHT22;34369;51.174;6.738;2022-12-07T21:26:32;4.10;91.50
48589;DHT22;34369;51.174;6.738;2022-12-07T21:29:06;4.10;91.50
48589;DHT22;34369;51.174;6.738;2022-12-07T21:52:07;4.10;91.50
48589;DHT22;34369;51.174;6.738;2022-12-07T22:02:18;4.10;91.60
48589;DHT22;34369;51.174;6.738;2022-12-07T22:22:43;3.90;91.70
48589;DHT22;34369;51.174;6.738;2022-12-07T22:48:13;3.90;91.90
48589;DHT22;34369;51.174;6.738;2022-12-07T22:50:45;4.00;91.90
48589;DHT22;34369;51.174;6.738;2022-12-07T22:53:19;3.90;91.90
48589;DHT22;34369;51.174;6.738;2022-12-07T22:55:52;3.90;91.90
48589;DHT22;34369;51.174;6.738;2022-12-07T22:58:24;4.00;92.10
48589;DHT22;34369;51.174;6.738;2022-12-07T23:00:56;3.90;92.00
48589;DHT22;34369;51.174;6.738;2022-12-07T23:06:05;4.00;91.90
48589;DHT22;34369;51.174;6.738;2022-12-07T23:08:40;4.00;91.90
48589;DHT22;34369;51.174;6.738;2022-12-07T23:11:15;4.00;92.00
48589;DHT22;34369;51.174;6.738;2022-12-07T23:14:03;4.00;91.90
48589;DHT22;34369;51.174;6.738;2022-12-07T23:16:36;4.00;91.90
48589;DHT22;34369;51.174;6.738;2022-12-07T23:19:09;3.90;91.90
48589;DHT22;34369;51.174;6.738;2022-12-07T23:24:15;4.00;91.90
48589;DHT22;34369;51.174;6.738;2022-12-07T23:29:20;3.90;92.10
48589;DHT22;34369;51.174;6.738;2022-12-07T23:31:52;3.90;91.90
48589;DHT22;34369;51.174;6.738;2022-12-07T23:34:24;3.90;92.00
48589;DHT22;34369;51.174;6.738;2022-12-07T23:39:30;3.90;92.00
48589;DHT22;34369;51.174;6.738;2022-12-07T23:42:03;3.80;91.90
48589;DHT22;34369;51.174;6.738;2022-12-07T23:44:35;4.00;91.90
48589;DHT22;34369;51.174;6.738;2022-12-07T23:47:08;4.00;91.90
48589;DHT22;34369;51.174;6.738;2022-12-07T23:49:42;3.90;91.90
48589;DHT22;34369;51.174;6.738;2022-12-07T23:52:14;4.00;92.00